Time;durP1;ratioP1;P1;durP2;ratioP2;P2;SDS_P1;SDS_P2;PMS_P1;PMS_P2;Temp;Humidity;BMP_temperature;BMP_pressure;BME280_temperature;BME280_humidity;BME280_pressure;Samples;Min_cycle;Max_cycle;Signal;HPM_P1;HPM_P2
2023/03/30 00:01:04;;;;;;;6.03;1.03;;;13.20;99.90;;;;;;5056647;28;20411;-86
2023/03/30 00:03:32;;;;;;;0.40;0.40;;;13.20;99.90;;;;;;5056290;28;20438;-86
2023/03/30 00:06:03;;;;;;;0.40;0.33;;;13.20;99.90;;;;;;5056740;28;20438;-85
2023/03/30 00:08:32;;;;;;;0.53;0.50;;;13.30;99.90;;;;;;5056199;28;20530;-86
2023/03/30 00:11:04;;;;;;;4.10;0.80;;;13.30;99.90;;;;;;5056179;28;20911;-86
2023/03/30 00:13:32;;;;;;;3.07;1.33;;;13.30;99.90;;;;;;5056432;28;20439;-85
2023/03/30 00:16:00;;;;;;;0.60;0.60;;;13.30;99.90;;;;;;5056655;28;20461;-85
2023/03/30 00:18:28;;;;;;;0.50;0.40;;;13.30;99.90;;;;;;5056056;28;20482;-85
2023/03/30 00:20:57;;;;;;;1.73;0.83;;;13.30;99.90;;;;;;5056495;28;20438;-85
2023/03/30 00:23:24;;;;;;;1.30;0.80;;;13.40;99.90;;;;;;5056049;28;20450;-85
2023/03/30 00:25:51;;;;;;;0.83;0.83;;;13.30;99.90;;;;;;5056673;28;20442;-85
2023/03/30 00:28:17;;;;;;;0.50;0.40;;;13.20;99.90;;;;;;5057946;28;20454;-85
2023/03/30 00:30:44;;;;;;;0.50;0.50;;;13.10;99.90;;;;;;5055215;28;20470;-86
2023/03/30 00:33:12;;;;;;;0.70;0.53;;;13.20;99.90;;;;;;5056256;28;20442;-86
2023/03/30 00:35:39;;;;;;;4.20;0.60;;;13.20;99.90;;;;;;5056178;28;20541;-86
2023/03/30 00:38:06;;;;;;;0.70;0.40;;;13.20;99.90;;;;;;5055981;28;20446;-86
2023/03/30 00:40:34;;;;;;;4.00;0.47;;;13.20;99.90;;;;;;5056172;28;20467;-86
2023/03/30 00:43:02;;;;;;;1.90;0.80;;;13.20;99.90;;;;;;5055815;28;20439;-85
2023/03/30 00:45:29;;;;;;;1.07;0.57;;;13.20;99.90;;;;;;5055740;28;20446;-86
2023/03/30 00:48:01;;;;;;;2.60;1.40;;;13.20;99.90;;;;;;5055829;28;20809;-86
2023/03/30 00:50:34;;;;;;;0.87;0.83;;;13.20;99.90;;;;;;5055734;28;20474;-86
2023/03/30 00:53:09;;;;;;;2.50;0.60;;;13.20;99.90;;;;;;5055709;28;20435;-86
2023/03/30 00:55:39;;;;;;;0.50;0.40;;;13.30;99.90;;;;;;5055717;28;20492;-86
2023/03/30 00:58:08;;;;;;;1.33;0.53;;;13.30;99.90;;;;;;5056581;28;20541;-86
2023/03/30 01:00:37;;;;;;;0.40;0.40;;;13.40;99.90;;;;;;5063485;28;20508;-86
2023/03/30 01:03:10;;;;;;;4.33;0.93;;;13.30;99.90;;;;;;5061074;28;20509;-86
2023/03/30 01:05:40;;;;;;;3.17;0.60;;;13.30;99.90;;;;;;5055279;28;20939;-86
2023/03/30 01:08:07;;;;;;;3.90;0.67;;;13.30;99.90;;;;;;5055020;28;20446;-85
2023/03/30 01:10:34;;;;;;;0.40;0.40;;;13.30;99.90;;;;;;5054712;28;20481;-86
2023/03/30 01:13:01;;;;;;;0.50;0.50;;;13.20;99.90;;;;;;5055223;28;20442;-85
2023/03/30 01:15:34;;;;;;;0.40;0.33;;;13.20;99.90;;;;;;5055260;28;20812;-86
2023/03/30 01:18:11;;;;;;;1.17;0.90;;;13.20;99.90;;;;;;5055276;28;20427;-85
2023/03/30 01:21:22;;;;;;;0.60;0.40;;;13.20;99.90;;;;;;5054626;28;20517;-85
2023/03/30 01:24:34;;;;;;;0.40;0.40;;;13.20;99.90;;;;;;5033989;28;20460;-85
2023/03/30 01:27:05;;;;;;;1.30;1.10;;;13.00;99.90;;;;;;5055011;28;20431;-85
2023/03/30 01:29:56;;;;;;;2.90;0.50;;;12.80;99.90;;;;;;5054862;28;20458;-85
2023/03/30 01:32:52;;;;;;;2.10;0.53;;;12.70;99.90;;;;;;5054637;28;20441;-84
2023/03/30 01:35:40;;;;;;;1.17;0.40;;;12.50;99.90;;;;;;5054476;28;20937;-83
2023/03/30 01:38:46;;;;;;;0.60;0.60;;;12.30;99.90;;;;;;5054752;28;20434;-83
2023/03/30 01:41:21;;;;;;;0.57;0.57;;;12.10;99.90;;;;;;5054720;28;20407;-84
2023/03/30 01:43:52;;;;;;;0.80;0.80;;;12.00;99.90;;;;;;5054282;28;20445;-84
2023/03/30 01:46:25;;;;;;;1.27;0.90;;;11.90;99.90;;;;;;5054296;28;20938;-84
2023/03/30 01:49:01;;;;;;;0.43;0.43;;;11.80;99.90;;;;;;5054493;28;20458;-84
2023/03/30 01:51:32;;;;;;;1.37;0.70;;;11.70;99.90;;;;;;5054196;28;20933;-85
2023/03/30 01:54:05;;;;;;;1.53;0.67;;;11.60;99.90;;;;;;5054371;28;20899;-84
2023/03/30 01:56:38;;;;;;;0.40;0.40;;;11.50;99.90;;;;;;5054712;28;20526;-85
2023/03/30 01:59:09;;;;;;;1.13;0.70;;;11.60;99.90;;;;;;5054230;28;21023;-85
2023/03/30 02:01:40;;;;;;;1.50;0.40;;;11.50;99.90;;;;;;5054288;28;20438;-85
2023/03/30 02:04:08;;;;;;;0.40;0.30;;;11.50;99.90;;;;;;5054331;28;20426;-85
2023/03/30 02:06:38;;;;;;;0.50;0.40;;;11.60;99.90;;;;;;5054012;28;20435;-85
2023/03/30 02:09:08;;;;;;;5.30;0.70;;;11.60;99.90;;;;;;5054284;28;20482;-85
2023/03/30 02:11:38;;;;;;;0.60;0.50;;;11.50;99.90;;;;;;5053923;28;20486;-85
2023/03/30 02:14:08;;;;;;;0.40;0.40;;;11.50;99.90;;;;;;5054177;28;20794;-85
2023/03/30 02:16:41;;;;;;;1.70;0.90;;;11.50;99.90;;;;;;5053758;28;20512;-85
2023/03/30 02:19:08;;;;;;;0.47;0.47;;;11.50;99.90;;;;;;5053873;28;20529;-85
2023/03/30 02:21:35;;;;;;;1.43;0.40;;;11.60;99.90;;;;;;5053944;28;20450;-85
2023/03/30 02:24:05;;;;;;;0.97;0.87;;;11.60;99.90;;;;;;5053922;28;20806;-86
2023/03/30 02:26:32;;;;;;;0.50;0.50;;;11.60;99.90;;;;;;5053629;28;20950;-85
2023/03/30 02:29:01;;;;;;;1.07;0.60;;;11.70;99.90;;;;;;5053725;28;20477;-85
2023/03/30 02:31:28;;;;;;;0.60;0.50;;;11.70;99.90;;;;;;5053935;28;20461;-85
2023/03/30 02:34:08;;;;;;;0.40;0.40;;;11.70;99.90;;;;;;5053630;28;20538;-86
2023/03/30 02:36:59;;;;;;;3.67;1.03;;;11.70;99.90;;;;;;5053984;28;20430;-86
2023/03/30 02:39:34;;;;;;;0.63;0.63;;;11.80;99.90;;;;;;5053889;28;20490;-85
2023/03/30 02:42:28;;;;;;;2.83;0.47;;;11.80;99.90;;;;;;5053796;28;20433;-85
2023/03/30 02:45:10;;;;;;;0.53;0.53;;;11.90;99.90;;;;;;5058878;28;20443;-85
2023/03/30 02:47:46;;;;;;;0.70;0.50;;;12.00;99.90;;;;;;5064097;28;20485;-83
2023/03/30 02:50:21;;;;;;;0.50;0.40;;;12.10;99.90;;;;;;5058576;28;20520;-84
2023/03/30 02:52:54;;;;;;;0.60;0.50;;;12.00;99.90;;;;;;5053887;28;20481;-84
2023/03/30 02:55:24;;;;;;;0.50;0.47;;;12.00;99.90;;;;;;5053045;28;20442;-83
2023/03/30 02:58:02;;;;;;;1.93;0.67;;;11.80;99.90;;;;;;5053359;28;20455;-84
2023/03/30 03:00:41;;;;;;;0.60;0.37;;;11.70;99.90;;;;;;5053235;28;20494;-84
2023/03/30 03:03:15;;;;;;;1.13;0.60;;;11.60;99.90;;;;;;5053027;28;20905;-84
2023/03/30 03:05:43;;;;;;;0.80;0.40;;;11.60;99.90;;;;;;5052989;28;20813;-84
2023/03/30 03:08:14;;;;;;;3.00;0.70;;;11.50;99.90;;;;;;5053274;28;20478;-85
2023/03/30 03:10:40;;;;;;;0.87;0.50;;;11.50;99.90;;;;;;5053021;28;20529;-85
2023/03/30 03:13:08;;;;;;;1.27;0.90;;;11.40;99.90;;;;;;5053570;28;20458;-84
2023/03/30 03:15:37;;;;;;;0.87;0.40;;;11.30;99.90;;;;;;5053208;28;20454;-84
2023/03/30 03:18:04;;;;;;;14.23;1.10;;;11.20;99.90;;;;;;5053168;28;20447;-84
2023/03/30 03:20:31;;;;;;;1.80;0.50;;;11.20;99.90;;;;;;5053160;28;20478;-85
2023/03/30 03:22:58;;;;;;;1.00;0.60;;;11.30;99.90;;;;;;5052834;28;20439;-84
2023/03/30 03:25:25;;;;;;;0.30;0.30;;;11.20;99.90;;;;;;5053157;28;20450;-85
2023/03/30 03:27:52;;;;;;;0.63;0.50;;;11.20;99.90;;;;;;5053077;28;20439;-85
2023/03/30 03:30:19;;;;;;;0.50;0.50;;;11.20;99.90;;;;;;5053019;28;20466;-85
2023/03/30 03:32:48;;;;;;;1.30;0.60;;;11.20;99.90;;;;;;5053616;28;20454;-85
2023/03/30 03:35:15;;;;;;;6.33;0.40;;;11.10;99.90;;;;;;5053493;28;20942;-85
2023/03/30 03:37:42;;;;;;;1.87;0.50;;;11.10;99.90;;;;;;5053180;28;20454;-85
2023/03/30 03:40:10;;;;;;;3.33;0.60;;;11.10;99.90;;;;;;5053087;28;20490;-85
2023/03/30 03:42:37;;;;;;;0.67;0.67;;;11.00;99.90;;;;;;5053038;28;20526;-85
2023/03/30 03:45:04;;;;;;;0.77;0.40;;;11.00;99.90;;;;;;5052813;28;20820;-85
2023/03/30 03:47:32;;;;;;;0.67;0.67;;;11.10;99.90;;;;;;5052518;28;20981;-85
2023/03/30 03:50:02;;;;;;;1.03;0.93;;;11.10;99.90;;;;;;5052931;28;20810;-85
2023/03/30 03:52:29;;;;;;;0.50;0.50;;;11.00;99.90;;;;;;5053217;28;20809;-85
2023/03/30 03:54:56;;;;;;;1.80;0.50;;;11.00;99.90;;;;;;5052824;28;20486;-85
2023/03/30 03:57:23;;;;;;;0.57;0.50;;;11.00;99.90;;;;;;5052693;28;20453;-85
2023/03/30 03:59:51;;;;;;;0.60;0.50;;;11.10;99.90;;;;;;5052376;28;20493;-85
2023/03/30 04:02:18;;;;;;;0.40;0.40;;;11.10;99.90;;;;;;5053047;28;20492;-85
2023/03/30 04:04:45;;;;;;;3.23;2.23;;;11.10;99.90;;;;;;5053186;28;20450;-84
2023/03/30 04:07:13;;;;;;;0.57;0.57;;;11.10;99.90;;;;;;5056552;28;20812;-85
2023/03/30 04:09:40;;;;;;;2.63;0.80;;;11.20;99.90;;;;;;5056058;28;20848;-84
2023/03/30 04:12:07;;;;;;;1.00;0.50;;;11.20;99.90;;;;;;5056420;28;20446;-84
2023/03/30 04:14:34;;;;;;;4.00;0.50;;;11.20;99.90;;;;;;5056596;28;20458;-85
2023/03/30 04:17:01;;;;;;;4.33;0.47;;;11.30;99.90;;;;;;5056077;28;20450;-85
2023/03/30 04:19:30;;;;;;;0.40;0.40;;;11.30;99.90;;;;;;5056135;28;20473;-85
2023/03/30 04:21:57;;;;;;;2.43;0.70;;;11.30;99.90;;;;;;5056247;28;20435;-85
2023/03/30 04:24:28;;;;;;;2.00;1.00;;;11.40;99.90;;;;;;5056162;28;20463;-85
2023/03/30 04:26:56;;;;;;;2.20;1.03;;;11.40;99.90;;;;;;5056222;28;20500;-85
2023/03/30 04:29:23;;;;;;;9.83;0.50;;;11.40;99.90;;;;;;5056076;28;20470;-85
2023/03/30 04:31:50;;;;;;;5.13;0.53;;;11.40;99.90;;;;;;5055937;28;20447;-85
2023/03/30 04:34:20;;;;;;;1.60;0.50;;;11.50;99.90;;;;;;5056002;28;20450;-85
2023/03/30 04:36:47;;;;;;;1.43;0.77;;;11.50;99.90;;;;;;5055912;28;20526;-85
2023/03/30 04:39:17;;;;;;;0.80;0.40;;;11.60;99.90;;;;;;5055726;28;20474;-85
2023/03/30 04:41:45;;;;;;;0.37;0.33;;;11.50;99.90;;;;;;5055466;28;21064;-85
2023/03/30 04:44:12;;;;;;;10.03;1.10;;;11.50;99.90;;;;;;5056466;28;20559;-85
2023/03/30 04:46:39;;;;;;;8.20;0.70;;;11.60;99.90;;;;;;5055486;28;20466;-85
2023/03/30 04:49:06;;;;;;;1.10;0.50;;;11.60;99.90;;;;;;5055472;28;20466;-85
2023/03/30 04:51:33;;;;;;;1.13;0.93;;;11.60;99.90;;;;;;5055891;28;20450;-84
2023/03/30 04:54:01;;;;;;;0.87;0.70;;;11.60;99.90;;;;;;5055556;28;20839;-85
2023/03/30 04:56:27;;;;;;;1.43;0.40;;;11.60;99.90;;;;;;5055555;28;20831;-85
2023/03/30 04:58:56;;;;;;;0.83;0.50;;;11.60;99.90;;;;;;5055482;28;20470;-86
2023/03/30 05:01:23;;;;;;;1.27;0.80;;;11.70;99.90;;;;;;5055350;28;20524;-85
2023/03/30 05:03:49;;;;;;;2.97;0.70;;;11.70;99.90;;;;;;5055578;28;20450;-85
2023/03/30 05:06:16;;;;;;;9.23;1.90;;;11.60;99.90;;;;;;5055507;28;20450;-85
2023/03/30 05:08:43;;;;;;;2.70;0.70;;;11.70;99.90;;;;;;5055291;28;20470;-85
2023/03/30 05:11:10;;;;;;;2.10;1.37;;;11.60;99.90;;;;;;5055130;28;20474;-84
2023/03/30 05:13:37;;;;;;;7.50;0.70;;;11.60;99.90;;;;;;5056173;28;20806;-85
2023/03/30 05:16:05;;;;;;;1.23;0.60;;;11.70;99.90;;;;;;5055194;28;20450;-84
2023/03/30 05:18:32;;;;;;;2.77;0.90;;;11.70;99.90;;;;;;5054284;28;20447;-84
2023/03/30 05:20:59;;;;;;;0.80;0.60;;;11.70;99.90;;;;;;5054996;28;20486;-85
2023/03/30 05:23:26;;;;;;;2.00;0.80;;;11.70;99.90;;;;;;5054954;28;20450;-84
2023/03/30 05:25:54;;;;;;;3.03;0.50;;;11.70;99.90;;;;;;5055048;28;20844;-85
2023/03/30 05:28:21;;;;;;;0.63;0.53;;;11.70;99.90;;;;;;5055017;28;20485;-85
2023/03/30 05:30:53;;;;;;;1.17;0.60;;;11.70;99.90;;;;;;5054802;28;20467;-85
2023/03/30 05:33:21;;;;;;;7.17;0.80;;;11.70;99.90;;;;;;5054903;28;20490;-85
2023/03/30 05:35:48;;;;;;;3.13;0.80;;;11.70;99.90;;;;;;5054609;28;20484;-85
2023/03/30 05:38:15;;;;;;;4.37;0.73;;;11.80;99.90;;;;;;5054785;28;20450;-85
2023/03/30 05:40:43;;;;;;;2.30;0.70;;;11.80;99.90;;;;;;5054602;28;20490;-85
2023/03/30 05:43:10;;;;;;;2.93;0.50;;;11.80;99.90;;;;;;5054590;28;20964;-84
2023/03/30 05:45:37;;;;;;;0.70;0.67;;;11.80;99.90;;;;;;5054337;28;20439;-84
2023/03/30 05:48:05;;;;;;;2.00;0.70;;;11.80;99.90;;;;;;5054649;28;20450;-84
2023/03/30 05:50:33;;;;;;;9.27;0.70;;;11.80;99.90;;;;;;5054432;28;20470;-84
2023/03/30 05:53:00;;;;;;;0.50;0.50;;;11.80;99.90;;;;;;5054108;28;20981;-84
2023/03/30 05:55:27;;;;;;;7.60;0.70;;;11.80;99.90;;;;;;5054388;28;20453;-84
2023/03/30 05:57:55;;;;;;;1.10;0.90;;;11.80;99.90;;;;;;5054319;28;20443;-84
2023/03/30 06:00:22;;;;;;;0.40;0.40;;;11.90;99.90;;;;;;5054225;28;20521;-84
2023/03/30 06:02:50;;;;;;;0.63;0.53;;;11.80;99.90;;;;;;5053979;28;20488;-84
2023/03/30 06:05:17;;;;;;;1.23;0.97;;;11.90;99.90;;;;;;5054230;28;20512;-84
2023/03/30 06:07:45;;;;;;;6.27;0.77;;;11.90;99.90;;;;;;5054282;28;20824;-84
2023/03/30 06:10:12;;;;;;;0.47;0.47;;;11.90;99.90;;;;;;5053747;28;20855;-83
2023/03/30 06:12:39;;;;;;;2.00;0.60;;;11.90;99.90;;;;;;5054142;28;20447;-84
2023/03/30 06:15:07;;;;;;;1.63;0.60;;;11.90;99.90;;;;;;5054076;28;20488;-84
2023/03/30 06:17:34;;;;;;;1.80;1.03;;;11.80;99.90;;;;;;5053925;28;20471;-84
2023/03/30 06:20:07;;;;;;;1.00;0.60;;;11.70;99.90;;;;;;5053822;28;20473;-84
2023/03/30 06:22:34;;;;;;;3.63;0.70;;;11.70;99.90;;;;;;5053993;28;20431;-84
2023/03/30 06:25:02;;;;;;;0.50;0.40;;;11.60;99.90;;;;;;5053942;28;20533;-84
2023/03/30 06:27:30;;;;;;;22.53;0.93;;;11.70;99.90;;;;;;5053628;28;20427;-84
2023/03/30 06:29:57;;;;;;;0.40;0.40;;;11.70;99.90;;;;;;5052688;28;20496;-84
2023/03/30 06:32:24;;;;;;;14.37;0.90;;;11.80;99.90;;;;;;5053500;28;20451;-84
2023/03/30 06:34:51;;;;;;;3.13;0.87;;;11.80;99.90;;;;;;5053910;28;20541;-85
2023/03/30 06:37:18;;;;;;;0.73;0.60;;;12.00;99.90;;;;;;5054881;28;20451;-84
2023/03/30 06:39:45;;;;;;;3.40;0.53;;;12.00;99.90;;;;;;5054183;28;20502;-84
2023/03/30 06:42:13;;;;;;;4.47;0.63;;;12.10;99.90;;;;;;5053491;28;20470;-84
2023/03/30 06:44:40;;;;;;;2.00;0.50;;;12.10;99.90;;;;;;5053465;28;20455;-80
2023/03/30 06:47:06;;;;;;;0.90;0.60;;;12.20;99.90;;;;;;5053309;28;20793;-80
2023/03/30 06:49:33;;;;;;;0.93;0.57;;;12.30;99.90;;;;;;5053360;28;20540;-79
2023/03/30 06:52:00;;;;;;;0.57;0.40;;;12.30;99.90;;;;;;5053163;28;20454;-80
2023/03/30 06:54:27;;;;;;;5.40;0.60;;;12.40;99.90;;;;;;5053377;28;20455;-79
2023/03/30 06:56:53;;;;;;;2.80;0.90;;;12.50;99.90;;;;;;5053085;28;20457;-79
2023/03/30 06:59:22;;;;;;;6.87;0.90;;;12.50;99.90;;;;;;5052862;28;20477;-79
2023/03/30 07:01:49;;;;;;;0.70;0.50;;;12.70;99.90;;;;;;5053081;28;20486;-80
2023/03/30 07:04:15;;;;;;;1.83;0.50;;;12.80;99.90;;;;;;5053142;28;20981;-79
2023/03/30 07:06:42;;;;;;;0.77;0.70;;;12.80;99.90;;;;;;5052919;28;20941;-80
2023/03/30 07:09:09;;;;;;;4.90;1.20;;;12.80;99.90;;;;;;5052984;28;20481;-76
2023/03/30 07:11:36;;;;;;;6.50;0.70;;;12.70;99.90;;;;;;5052794;28;20998;-79
2023/03/30 07:14:04;;;;;;;0.73;0.67;;;12.70;99.90;;;;;;5053082;28;20454;-79
2023/03/30 07:16:32;;;;;;;2.13;0.60;;;12.60;99.90;;;;;;5053197;28;20446;-78
2023/03/30 07:18:58;;;;;;;7.27;0.93;;;12.50;99.90;;;;;;5052738;28;20458;-78
2023/03/30 07:21:25;;;;;;;2.33;0.80;;;12.30;99.90;;;;;;5053059;28;20477;-79
2023/03/30 07:23:52;;;;;;;1.90;0.60;;;12.20;99.90;;;;;;5052927;28;20441;-78
2023/03/30 07:26:20;;;;;;;1.50;0.50;;;12.10;99.90;;;;;;5053098;28;20412;-78
2023/03/30 07:28:46;;;;;;;5.70;0.80;;;12.00;99.90;;;;;;5052968;28;20471;-78
2023/03/30 07:31:15;;;;;;;1.20;0.60;;;12.00;99.90;;;;;;5053001;28;20500;-79
2023/03/30 07:33:43;;;;;;;1.33;0.83;;;11.90;99.90;;;;;;5053005;28;20454;-78
2023/03/30 07:36:10;;;;;;;0.93;0.60;;;11.90;99.90;;;;;;5052924;28;20450;-78
2023/03/30 07:38:37;;;;;;;1.07;0.97;;;11.80;99.90;;;;;;5052650;28;20434;-78
2023/03/30 07:41:08;;;;;;;3.57;0.60;;;11.80;99.90;;;;;;5055201;28;20493;-78
2023/03/30 07:43:34;;;;;;;5.40;0.90;;;11.80;99.90;;;;;;5056942;28;20434;-78
2023/03/30 07:46:01;;;;;;;1.07;0.70;;;11.70;99.90;;;;;;5056851;28;20457;-78
2023/03/30 07:48:28;;;;;;;1.70;0.67;;;11.70;99.90;;;;;;5056539;28;20454;-78
2023/03/30 07:51:02;;;;;;;4.90;1.20;;;11.80;99.90;;;;;;5056585;28;20447;-78
2023/03/30 07:53:28;;;;;;;3.50;0.67;;;11.70;99.90;;;;;;5056720;28;20438;-78
2023/03/30 07:55:55;;;;;;;4.20;0.80;;;11.80;99.90;;;;;;5056640;28;20478;-79
2023/03/30 07:58:22;;;;;;;7.43;1.00;;;11.80;99.90;;;;;;5056260;28;20465;-79
2023/03/30 08:00:49;;;;;;;4.00;0.70;;;11.80;99.90;;;;;;5056485;28;20572;-79
2023/03/30 08:03:16;;;;;;;4.53;0.60;;;11.80;99.90;;;;;;5056664;28;20461;-80
2023/03/30 08:05:45;;;;;;;0.70;0.50;;;11.80;99.90;;;;;;5056425;28;20454;-80
2023/03/30 08:08:13;;;;;;;1.07;1.00;;;11.80;99.90;;;;;;5056111;28;20934;-80
2023/03/30 08:10:39;;;;;;;0.50;0.50;;;11.80;99.90;;;;;;5056225;28;20482;-79
2023/03/30 08:13:06;;;;;;;4.23;0.80;;;11.80;99.90;;;;;;5056001;28;20880;-79
2023/03/30 08:15:33;;;;;;;0.97;0.57;;;11.70;99.90;;;;;;5056433;28;20451;-79
2023/03/30 08:18:03;;;;;;;10.93;0.80;;;11.70;99.90;;;;;;5055910;28;20934;-79
2023/03/30 08:20:29;;;;;;;3.33;0.73;;;11.80;99.90;;;;;;5056141;28;20470;-79
2023/03/30 08:22:56;;;;;;;0.90;0.67;;;11.80;99.90;;;;;;5056114;28;20454;-79
2023/03/30 08:25:24;;;;;;;0.63;0.63;;;11.90;99.90;;;;;;5055614;28;20449;-79
2023/03/30 08:27:51;;;;;;;0.97;0.60;;;11.90;99.90;;;;;;5055810;28;20489;-79
2023/03/30 08:30:18;;;;;;;8.53;1.00;;;11.90;99.90;;;;;;5055558;28;20453;-79
2023/03/30 08:32:45;;;;;;;0.83;0.70;;;11.90;99.90;;;;;;5055915;28;20903;-79
2023/03/30 08:35:12;;;;;;;0.47;0.43;;;11.90;99.90;;;;;;5055605;28;20445;-79
2023/03/30 08:37:39;;;;;;;0.50;0.50;;;11.90;99.90;;;;;;5055557;28;21000;-79
2023/03/30 08:40:09;;;;;;;0.40;0.40;;;11.80;99.90;;;;;;5055480;28;20842;-79
2023/03/30 08:43:10;;;;;;;1.60;0.40;;;11.80;99.90;;;;;;5055992;28;20469;-79
2023/03/30 08:45:40;;;;;;;2.10;0.50;;;11.80;99.90;;;;;;5055535;28;20419;-79
2023/03/30 08:48:16;;;;;;;0.77;0.40;;;11.80;99.90;;;;;;5055674;28;20504;-79
2023/03/30 08:50:47;;;;;;;0.40;0.40;;;11.80;99.90;;;;;;5055604;28;20469;-79
2023/03/30 08:53:14;;;;;;;0.40;0.40;;;11.80;99.90;;;;;;5054563;28;20431;-79
2023/03/30 08:55:46;;;;;;;0.50;0.50;;;11.70;99.90;;;;;;5055174;28;20950;-79
2023/03/30 08:58:25;;;;;;;1.70;0.63;;;11.60;99.90;;;;;;5055958;28;20481;-79
2023/03/30 09:00:56;;;;;;;1.07;0.50;;;11.50;99.90;;;;;;5055122;28;20776;-79
2023/03/30 09:03:31;;;;;;;5.10;0.40;;;11.40;99.90;;;;;;5055397;28;20439;-79
2023/03/30 09:06:04;;;;;;;1.13;0.50;;;11.30;99.90;;;;;;5055407;28;20430;-79
2023/03/30 09:08:33;;;;;;;2.40;1.43;;;11.30;99.90;;;;;;5054938;28;20911;-79
2023/03/30 09:11:01;;;;;;;0.50;0.40;;;11.20;99.90;;;;;;5054862;28;20482;-79
2023/03/30 09:13:33;;;;;;;0.73;0.40;;;11.10;99.90;;;;;;5055173;28;20446;-79
2023/03/30 09:16:07;;;;;;;2.93;0.70;;;11.00;99.90;;;;;;5055213;28;20478;-79
2023/03/30 09:18:35;;;;;;;0.37;0.33;;;10.90;99.90;;;;;;5055095;28;20449;-79
2023/03/30 09:21:04;;;;;;;0.50;0.50;;;10.90;99.90;;;;;;5055007;28;20457;-79
2023/03/30 09:23:34;;;;;;;0.30;0.30;;;10.90;99.90;;;;;;5054857;28;20462;-79
2023/03/30 09:26:12;;;;;;;0.60;0.60;;;10.90;99.90;;;;;;5055185;28;20454;-79
2023/03/30 09:28:45;;;;;;;1.23;0.70;;;11.10;99.90;;;;;;5054554;28;20434;-79
2023/03/30 09:31:17;;;;;;;0.50;0.50;;;11.30;99.90;;;;;;5054910;28;20438;-79
2023/03/30 09:33:48;;;;;;;0.80;0.47;;;11.20;99.90;;;;;;5055730;28;20522;-79
2023/03/30 09:36:17;;;;;;;0.40;0.30;;;11.10;99.90;;;;;;5054546;28;20914;-79
2023/03/30 09:38:45;;;;;;;0.40;0.40;;;11.10;99.90;;;;;;5054524;28;20477;-79
2023/03/30 09:41:23;;;;;;;3.07;0.70;;;11.10;99.90;;;;;;5054488;28;20821;-80
2023/03/30 09:43:53;;;;;;;0.40;0.30;;;11.30;99.90;;;;;;5054689;28;20439;-79
2023/03/30 09:46:20;;;;;;;0.63;0.63;;;11.40;99.90;;;;;;5054359;28;20439;-83
2023/03/30 09:48:48;;;;;;;0.70;0.50;;;11.40;99.90;;;;;;5054540;28;20502;-83
2023/03/30 09:51:17;;;;;;;1.03;0.53;;;11.70;99.90;;;;;;5054125;28;20941;-84
2023/03/30 09:53:46;;;;;;;1.00;0.67;;;11.90;99.90;;;;;;5054326;28;20828;-83
2023/03/30 09:56:20;;;;;;;0.53;0.53;;;12.00;99.90;;;;;;5054473;28;20473;-79
2023/03/30 09:58:47;;;;;;;2.70;2.10;;;12.10;99.90;;;;;;5054045;28;20519;-79
2023/03/30 10:01:18;;;;;;;1.13;0.70;;;12.10;99.90;;;;;;5054420;28;20455;-79
2023/03/30 10:03:46;;;;;;;0.60;0.60;;;12.10;99.90;;;;;;5053971;28;20954;-79
2023/03/30 10:06:18;;;;;;;0.60;0.53;;;12.20;99.90;;;;;;5054115;28;20463;-79
2023/03/30 10:08:50;;;;;;;1.57;0.70;;;12.20;99.90;;;;;;5053948;28;20478;-79
2023/03/30 10:11:20;;;;;;;0.60;0.50;;;12.30;99.90;;;;;;5053590;28;21068;-80
2023/03/30 10:13:50;;;;;;;0.77;0.70;;;12.40;99.90;;;;;;5054401;28;20446;-82
2023/03/30 10:16:26;;;;;;;0.60;0.60;;;12.50;99.90;;;;;;5054930;28;20462;-85
2023/03/30 10:18:54;;;;;;;7.00;0.63;;;12.50;99.90;;;;;;5054357;28;20500;-78
2023/03/30 10:21:26;;;;;;;0.60;0.50;;;12.60;99.90;;;;;;5053867;28;20439;-78
2023/03/30 10:24:01;;;;;;;0.90;0.63;;;12.80;99.90;;;;;;5054088;28;20466;-78
2023/03/30 10:26:30;;;;;;;0.77;0.60;;;13.00;99.90;;;;;;5053885;28;20434;-79
2023/03/30 10:29:03;;;;;;;2.90;0.50;;;13.00;99.90;;;;;;5053727;28;20459;-77
2023/03/30 10:31:33;;;;;;;4.07;0.60;;;13.00;99.90;;;;;;5054315;28;20953;-78
2023/03/30 10:34:02;;;;;;;2.20;0.70;;;13.00;99.90;;;;;;5053666;28;20434;-78
2023/03/30 10:36:31;;;;;;;1.30;0.70;;;12.80;99.90;;;;;;5053408;28;21029;-78
2023/03/30 10:39:05;;;;;;;0.70;0.50;;;12.70;99.90;;;;;;5053434;28;20470;-78
2023/03/30 10:41:32;;;;;;;1.83;0.50;;;12.60;99.90;;;;;;5053235;28;20434;-77
2023/03/30 10:44:06;;;;;;;0.50;0.50;;;12.50;99.90;;;;;;5053551;28;20469;-78
2023/03/30 10:46:34;;;;;;;1.27;1.17;;;12.40;99.90;;;;;;5053228;28;20917;-77
2023/03/30 10:49:14;;;;;;;1.77;0.90;;;12.40;99.90;;;;;;5053148;28;20462;-77
2023/03/30 10:51:52;;;;;;;1.50;0.63;;;12.40;99.90;;;;;;5053669;28;20423;-77
2023/03/30 10:54:26;;;;;;;0.83;0.50;;;12.30;99.90;;;;;;5053086;28;20438;-77
2023/03/30 10:56:56;;;;;;;1.20;0.90;;;12.30;99.90;;;;;;5053504;28;20537;-77
2023/03/30 10:59:41;;;;;;;1.00;0.90;;;12.30;99.90;;;;;;5052950;28;20470;-77
2023/03/30 11:02:38;;;;;;;6.43;0.90;;;12.20;99.90;;;;;;5053195;28;20470;-77
2023/03/30 11:05:11;;;;;;;1.07;1.00;;;12.20;99.90;;;;;;5053076;28;20427;-77
2023/03/30 11:07:42;;;;;;;0.70;0.60;;;12.20;99.90;;;;;;5053122;28;20529;-78
2023/03/30 11:10:15;;;;;;;4.40;0.60;;;12.20;99.90;;;;;;5053098;28;20497;-77
2023/03/30 11:12:45;;;;;;;3.67;0.60;;;12.30;99.90;;;;;;5052988;28;20938;-77
2023/03/30 11:15:17;;;;;;;1.63;0.77;;;12.40;99.90;;;;;;5055881;28;20434;-78
2023/03/30 11:17:53;;;;;;;0.70;0.60;;;12.50;99.90;;;;;;5059573;28;20426;-78
2023/03/30 11:20:26;;;;;;;2.20;0.67;;;12.50;99.90;;;;;;5059695;28;20498;-77
2023/03/30 11:22:58;;;;;;;8.53;1.00;;;12.50;99.90;;;;;;5059500;28;20929;-77
2023/03/30 11:25:29;;;;;;;1.80;0.70;;;12.40;99.90;;;;;;5059664;28;20772;-77
2023/03/30 11:28:07;;;;;;;3.73;1.60;;;12.50;99.90;;;;;;5059398;28;20442;-77
2023/03/30 11:30:36;;;;;;;0.80;0.60;;;12.60;99.90;;;;;;5059888;28;20462;-77
2023/03/30 11:33:12;;;;;;;0.70;0.60;;;12.90;99.90;;;;;;5060057;28;20499;-84
2023/03/30 11:35:43;;;;;;;1.47;0.77;;;13.00;99.90;;;;;;5060189;28;20434;-84
2023/03/30 11:38:15;;;;;;;0.90;0.80;;;13.20;99.90;;;;;;5060244;28;20435;-83
2023/03/30 11:40:45;;;;;;;1.47;0.53;;;13.30;99.90;;;;;;5060280;28;20474;-84
2023/03/30 11:43:12;;;;;;;0.80;0.80;;;13.20;99.90;;;;;;5060919;28;20470;-84
2023/03/30 11:45:49;;;;;;;1.53;0.87;;;13.10;99.90;;;;;;5060170;28;20461;-85
2023/03/30 11:48:45;;;;;;;1.30;1.20;;;13.00;99.90;;;;;;5060459;28;20432;-85
2023/03/30 11:51:25;;;;;;;1.43;0.90;;;12.90;99.90;;;;;;5060041;28;20435;-85
2023/03/30 11:53:58;;;;;;;1.40;1.17;;;13.00;99.90;;;;;;5060510;28;20419;-85
2023/03/30 11:56:33;;;;;;;2.60;0.90;;;13.20;99.90;;;;;;5060530;28;20431;-85
2023/03/30 11:59:04;;;;;;;1.13;0.80;;;13.10;99.90;;;;;;5060566;28;20458;-85
2023/03/30 12:01:53;;;;;;;1.43;0.70;;;13.10;99.90;;;;;;5060302;28;20426;-85
2023/03/30 12:04:27;;;;;;;3.30;0.93;;;13.30;99.90;;;;;;5060059;28;20426;-85
2023/03/30 12:06:57;;;;;;;1.00;0.90;;;13.50;99.90;;;;;;5068190;28;20418;-84
2023/03/30 12:09:35;;;;;;;1.43;1.00;;;13.70;99.90;;;;;;5076524;28;20490;-85
2023/03/30 12:12:10;;;;;;;2.17;1.27;;;13.70;99.90;;;;;;5069516;28;20485;-85
2023/03/30 12:15:00;;;;;;;1.00;0.90;;;13.60;99.90;;;;;;5060072;28;20437;-84
2023/03/30 12:17:41;;;;;;;0.80;0.80;;;13.70;99.90;;;;;;5060285;28;20450;-85
2023/03/30 12:20:19;;;;;;;10.40;0.90;;;13.60;99.90;;;;;;5060850;28;20445;-85
2023/03/30 12:22:52;;;;;;;7.00;1.10;;;13.80;99.90;;;;;;5060715;28;20457;-84
2023/03/30 12:25:28;;;;;;;0.70;0.70;;;14.00;99.90;;;;;;5060607;28;20430;-84
2023/03/30 12:28:02;;;;;;;2.73;1.13;;;14.10;99.90;;;;;;5057804;28;20450;-85
2023/03/30 12:30:30;;;;;;;0.93;0.80;;;14.30;99.90;;;;;;5057840;28;20459;-85
2023/03/30 12:33:03;;;;;;;1.83;1.40;;;14.40;99.90;;;;;;5057349;28;20958;-86
2023/03/30 12:35:54;;;;;;;0.73;0.70;;;14.60;99.90;;;;;;5058357;28;20454;-81
2023/03/30 12:38:24;;;;;;;2.10;1.23;;;14.60;99.90;;;;;;5058311;28;20815;-85
2023/03/30 12:41:19;;;;;;;1.37;0.80;;;14.60;99.90;;;;;;5059682;28;20442;-85
2023/03/30 12:44:20;;;;;;;0.97;0.87;;;14.60;99.90;;;;;;5038715;28;20494;-85
2023/03/30 12:46:58;;;;;;;1.67;1.00;;;14.70;99.90;;;;;;5026596;28;20442;-86
2023/03/30 12:49:33;;;;;;;1.63;0.63;;;14.90;99.90;;;;;;5056069;28;20990;-84
2023/03/30 12:52:09;;;;;;;0.80;0.80;;;15.00;99.90;;;;;;5056924;28;20450;-82
2023/03/30 12:55:10;;;;;;;0.87;0.87;;;15.10;99.90;;;;;;5056238;28;20426;-83
2023/03/30 12:57:50;;;;;;;1.00;0.70;;;15.00;99.90;;;;;;5055925;28;20431;-82
2023/03/30 13:00:46;;;;;;;7.73;1.37;;;15.10;99.90;;;;;;5055577;28;20462;-83
2023/03/30 13:03:33;;;;;;;0.60;0.60;;;15.20;99.90;;;;;;5055388;28;20479;-83
2023/03/30 13:06:01;;;;;;;1.30;1.00;;;15.20;99.90;;;;;;5055670;28;20501;-83